KDDH

William H Morse State Airport

Bennington, Vermont, USA
METAR KDDH 242354Z AUTO 26004KT 10SM CLR 22/06 A3004 RMK AO2 SLP171 T02170061 10244 20211 55009
Observed Flight Rules
May-24 @ 23:54 UTC (59 minutes ago) Visual Flight Rules
Wind Visibility Clouds
260° at 4 knots 10 miles
  • Clear skies
Temperatures Readings
Current 22°C / 72°F
Dewpoint 6°C / 43°F
Humidity 36%
Altimeter 30.04" Hg
Pressure 1017.1 hPa
Elevation 244
METAR KDDH 242354Z AUTO 26004KT 10SM CLR 22/06 A3004 RMK AO2 SLP171 T02170061 10244 20211 55009
Observed Flight Rules
May-24 @ 23:54 UTC
(59 minutes ago)
VFR
Wind Visibility
260° at 4 knots 10 miles
Clouds
  • Clear skies
Temperature Dewpoint
22°C / 72°F 6°C / 43°F
Humidity Altimeter Pressure
36% 30.04" Hg 1017.1 hPa